createdAt,value
2022-10-13T00:00:21.882Z,24.61
2022-10-13T00:00:52.046Z,24.61
2022-10-13T00:01:22.062Z,24.61
2022-10-13T00:01:52.001Z,24.61
2022-10-13T00:02:22.066Z,24.66
2022-10-13T00:02:52.139Z,24.64
2022-10-13T00:03:22.213Z,24.63
2022-10-13T00:03:52.281Z,24.63
2022-10-13T00:04:22.359Z,24.61
2022-10-13T00:04:52.472Z,24.61
2022-10-13T00:05:22.599Z,24.60
2022-10-13T00:05:52.578Z,24.61
2022-10-13T00:06:22.684Z,24.57
2022-10-13T00:06:52.792Z,24.61
2022-10-13T00:07:22.902Z,24.61
2022-10-13T00:07:53.007Z,24.63
2022-10-13T00:08:23.117Z,24.60
2022-10-13T00:08:53.225Z,24.60
2022-10-13T00:09:23.338Z,24.61
2022-10-13T00:09:53.447Z,24.61
2022-10-13T00:10:23.569Z,24.63
2022-10-13T00:10:53.674Z,24.63
2022-10-13T00:11:23.795Z,24.61
2022-10-13T00:11:53.898Z,24.58
2022-10-13T00:12:24.004Z,24.58
2022-10-13T00:12:54.110Z,24.58
2022-10-13T00:13:24.219Z,24.60
2022-10-13T00:13:54.333Z,24.60
2022-10-13T00:14:24.438Z,24.56
2022-10-13T00:14:54.639Z,24.61
2022-10-13T00:15:24.599Z,24.58
2022-10-13T00:15:54.577Z,24.60
2022-10-13T00:16:24.696Z,24.61
2022-10-13T00:16:54.798Z,24.58
2022-10-13T00:17:24.907Z,24.58
2022-10-13T00:17:55.015Z,24.58
2022-10-13T00:18:25.122Z,24.60
2022-10-13T00:18:55.229Z,24.61
2022-10-13T00:19:25.341Z,24.58
2022-10-13T00:19:55.449Z,24.60
2022-10-13T00:20:25.580Z,24.58
2022-10-13T00:20:55.563Z,24.60
2022-10-13T00:21:25.671Z,24.58
2022-10-13T00:21:55.779Z,24.57
2022-10-13T00:22:25.887Z,24.54
2022-10-13T00:22:55.994Z,24.56
2022-10-13T00:23:26.105Z,24.57
2022-10-13T00:23:56.209Z,24.57
2022-10-13T00:24:26.320Z,24.54
2022-10-13T00:24:56.424Z,24.53
2022-10-13T00:25:26.572Z,24.54
2022-10-13T00:25:56.552Z,24.54
2022-10-13T00:26:26.661Z,24.54
2022-10-13T00:26:56.761Z,24.53
2022-10-13T00:27:26.866Z,24.51
2022-10-13T00:27:56.977Z,24.56
2022-10-13T00:28:27.122Z,24.54
2022-10-13T00:28:57.210Z,24.54
2022-10-13T00:29:27.219Z,24.56
2022-10-13T00:29:57.346Z,24.56
2022-10-13T00:30:27.436Z,24.56
2022-10-13T00:30:57.537Z,24.54
2022-10-13T00:31:27.650Z,24.54
2022-10-13T00:31:57.747Z,24.50
2022-10-13T00:32:27.854Z,24.53
2022-10-13T00:32:57.967Z,24.50
2022-10-13T00:33:28.075Z,24.56
2022-10-13T00:33:58.180Z,24.53
2022-10-13T00:34:28.284Z,24.53
2022-10-13T00:34:58.390Z,24.51
2022-10-13T00:35:28.511Z,24.51
2022-10-13T00:35:58.610Z,24.51
2022-10-13T00:36:28.719Z,24.56
2022-10-13T00:36:58.827Z,24.56
2022-10-13T00:37:28.935Z,24.54
2022-10-13T00:37:59.037Z,24.54
2022-10-13T00:38:29.145Z,24.50
2022-10-13T00:38:59.256Z,24.54
2022-10-13T00:39:29.359Z,24.53
2022-10-13T00:39:59.491Z,24.47
2022-10-13T00:40:29.478Z,24.51
2022-10-13T00:40:59.587Z,24.50
2022-10-13T00:41:29.699Z,24.51
2022-10-13T00:41:59.803Z,24.53
2022-10-13T00:42:29.906Z,24.56
2022-10-13T00:43:00.009Z,24.57
2022-10-13T00:43:30.116Z,24.56
2022-10-13T00:44:00.259Z,24.56
2022-10-13T00:44:30.337Z,24.56
2022-10-13T00:45:00.472Z,24.60
2022-10-13T00:45:30.436Z,24.57
2022-10-13T00:46:00.556Z,24.60
2022-10-13T00:46:30.654Z,24.58
2022-10-13T00:47:00.761Z,24.58
2022-10-13T00:47:30.869Z,24.57
2022-10-13T00:48:00.974Z,24.58
2022-10-13T00:48:31.085Z,24.60
2022-10-13T00:49:01.187Z,24.58
2022-10-13T00:49:31.289Z,24.56
2022-10-13T00:50:01.425Z,24.57
2022-10-13T00:50:31.409Z,24.56
2022-10-13T00:51:01.518Z,24.50
2022-10-13T00:51:31.629Z,24.51
2022-10-13T00:52:01.738Z,24.51
2022-10-13T00:52:31.851Z,24.51
2022-10-13T00:53:01.963Z,24.51
2022-10-13T00:53:32.069Z,24.51
2022-10-13T00:54:02.169Z,24.53
2022-10-13T00:54:32.260Z,24.54
2022-10-13T00:55:02.341Z,24.54
2022-10-13T00:55:32.413Z,24.54
2022-10-13T00:56:02.482Z,24.56
2022-10-13T00:56:32.550Z,24.54
2022-10-13T00:57:02.621Z,24.54
2022-10-13T00:57:32.692Z,24.54
2022-10-13T00:58:05.426Z,24.54
2022-10-13T00:58:32.851Z,24.53
2022-10-13T00:59:02.920Z,24.51
2022-10-13T00:59:32.996Z,24.56
2022-10-13T01:00:03.098Z,24.56
2022-10-13T01:00:33.194Z,24.53
2022-10-13T01:01:03.296Z,24.54
2022-10-13T01:01:33.348Z,24.54
2022-10-13T01:02:03.421Z,24.57
2022-10-13T01:02:33.492Z,24.57
2022-10-13T01:03:03.571Z,24.58
2022-10-13T01:03:33.636Z,24.58
2022-10-13T01:04:03.707Z,24.58
2022-10-13T01:04:33.807Z,24.63
2022-10-13T01:05:03.930Z,24.58
2022-10-13T01:05:33.913Z,24.58
2022-10-13T01:06:04.019Z,24.58
2022-10-13T01:06:34.124Z,24.63
2022-10-13T01:07:04.233Z,24.57
2022-10-13T01:07:34.349Z,24.61
2022-10-13T01:08:04.453Z,24.58
2022-10-13T01:08:34.560Z,24.57
2022-10-13T01:09:04.663Z,24.57
2022-10-13T01:09:34.771Z,24.54
2022-10-13T01:10:04.893Z,24.57
2022-10-13T01:10:34.998Z,24.57
2022-10-13T01:11:05.104Z,24.60
2022-10-13T01:11:35.221Z,24.60
2022-10-13T01:12:05.330Z,24.58
2022-10-13T01:12:35.436Z,24.58
2022-10-13T01:13:05.538Z,24.53
2022-10-13T01:13:35.651Z,24.51
2022-10-13T01:14:05.758Z,24.50
2022-10-13T01:14:35.861Z,24.53
2022-10-13T01:15:06.009Z,24.51
2022-10-13T01:15:35.973Z,24.50
2022-10-13T01:16:06.076Z,24.50
2022-10-13T01:16:36.188Z,24.49
2022-10-13T01:17:06.294Z,24.46
2022-10-13T01:17:36.402Z,24.47
2022-10-13T01:18:06.510Z,24.50
2022-10-13T01:18:36.618Z,24.50
2022-10-13T01:19:06.725Z,24.50
2022-10-13T01:19:36.831Z,24.47
2022-10-13T01:20:06.941Z,24.51
2022-10-13T01:20:37.050Z,24.50
2022-10-13T01:21:07.162Z,24.50
2022-10-13T01:21:37.271Z,24.47
2022-10-13T01:22:07.378Z,24.49
2022-10-13T01:22:37.485Z,24.46
2022-10-13T01:23:07.593Z,24.43
2022-10-13T01:23:37.698Z,24.43
2022-10-13T01:24:07.808Z,24.39
2022-10-13T01:24:37.917Z,24.44
2022-10-13T01:25:08.021Z,24.42
2022-10-13T01:25:38.127Z,24.39
2022-10-13T01:26:08.233Z,24.40
2022-10-13T01:26:38.336Z,24.43
2022-10-13T01:27:08.445Z,24.44
2022-10-13T01:27:38.553Z,24.40
2022-10-13T01:28:08.661Z,24.43
2022-10-13T01:28:38.790Z,24.42
2022-10-13T01:29:08.788Z,24.39
2022-10-13T01:29:38.894Z,24.43
2022-10-13T01:30:09.035Z,24.43
2022-10-13T01:30:39.117Z,24.42
2022-10-13T01:31:09.221Z,24.44
2022-10-13T01:31:39.329Z,24.44
2022-10-13T01:32:09.438Z,24.42
2022-10-13T01:32:39.548Z,24.44
2022-10-13T01:33:09.652Z,24.42
2022-10-13T01:33:39.759Z,24.44
2022-10-13T01:34:09.871Z,24.47
2022-10-13T01:34:39.979Z,24.44
2022-10-13T01:35:10.087Z,24.44
2022-10-13T01:35:40.199Z,24.46
2022-10-13T01:36:10.307Z,24.49
2022-10-13T01:36:40.420Z,24.50
2022-10-13T01:37:10.529Z,24.49
2022-10-13T01:37:40.633Z,24.49
2022-10-13T01:38:10.736Z,24.50
2022-10-13T01:38:40.842Z,24.49
2022-10-13T01:39:10.948Z,24.47
2022-10-13T01:39:41.052Z,24.47
2022-10-13T01:40:11.186Z,24.46
2022-10-13T01:40:41.163Z,24.47
2022-10-13T01:41:11.274Z,24.47
2022-10-13T01:41:41.386Z,24.47
2022-10-13T01:42:11.494Z,24.47
2022-10-13T01:42:41.601Z,24.44
2022-10-13T01:43:11.704Z,24.44
2022-10-13T01:43:41.812Z,24.46
2022-10-13T01:44:11.917Z,24.47
2022-10-13T01:44:42.026Z,24.46
2022-10-13T01:45:12.232Z,24.47
2022-10-13T01:45:42.177Z,24.47
2022-10-13T01:46:12.288Z,24.50
2022-10-13T01:46:42.396Z,24.50
2022-10-13T01:47:12.506Z,24.50
2022-10-13T01:47:42.612Z,24.50
2022-10-13T01:48:12.720Z,24.46
2022-10-13T01:48:42.823Z,24.49
2022-10-13T01:49:12.930Z,24.47
2022-10-13T01:49:43.037Z,24.49
2022-10-13T01:50:13.152Z,24.47
2022-10-13T01:50:43.258Z,24.49
2022-10-13T01:51:13.362Z,24.44
2022-10-13T01:51:43.466Z,24.49
2022-10-13T01:52:13.574Z,24.46
2022-10-13T01:52:43.683Z,24.46
2022-10-13T01:53:13.786Z,24.44
2022-10-13T01:53:43.892Z,24.42
2022-10-13T01:54:14.000Z,24.44
2022-10-13T01:54:44.110Z,24.43
2022-10-13T01:55:14.219Z,24.42
2022-10-13T01:55:44.324Z,24.40
2022-10-13T01:56:14.432Z,24.42
2022-10-13T01:56:44.538Z,24.44
2022-10-13T01:57:14.646Z,24.43
2022-10-13T01:57:44.753Z,24.44
2022-10-13T01:58:14.860Z,24.46
2022-10-13T01:58:44.976Z,24.40
2022-10-13T01:59:15.090Z,24.43
2022-10-13T01:59:45.196Z,24.46
2022-10-13T02:00:15.330Z,24.46
2022-10-13T02:00:45.464Z,24.46
2022-10-13T02:01:15.443Z,24.44
2022-10-13T02:01:45.553Z,24.46
2022-10-13T02:02:16.065Z,24.46
2022-10-13T02:02:45.696Z,24.46
2022-10-13T02:03:15.800Z,24.44
2022-10-13T02:03:45.908Z,24.46
2022-10-13T02:04:16.016Z,24.44
2022-10-13T02:04:46.033Z,24.46
2022-10-13T02:05:16.058Z,24.42
2022-10-13T02:05:46.078Z,24.42
2022-10-13T02:06:16.098Z,24.42
2022-10-13T02:06:46.119Z,24.44
2022-10-13T02:07:16.139Z,24.43
2022-10-13T02:07:46.155Z,24.43
2022-10-13T02:08:16.178Z,24.43
2022-10-13T02:08:46.201Z,24.43
2022-10-13T02:09:16.221Z,24.43
2022-10-13T02:09:46.244Z,24.42
2022-10-13T02:10:16.281Z,24.39
2022-10-13T02:10:46.301Z,24.44
2022-10-13T02:11:16.322Z,24.43
2022-10-13T02:11:46.342Z,24.43
2022-10-13T02:12:16.829Z,24.43
2022-10-13T02:12:46.390Z,24.43
2022-10-13T02:13:16.409Z,24.43
2022-10-13T02:13:46.435Z,24.43
2022-10-13T02:14:16.453Z,24.43
2022-10-13T02:14:46.470Z,24.46
2022-10-13T02:15:16.493Z,24.43
2022-10-13T02:15:46.585Z,24.43
2022-10-13T02:16:16.571Z,24.43
2022-10-13T02:16:46.593Z,24.44
2022-10-13T02:17:16.613Z,24.43
2022-10-13T02:17:46.633Z,24.39
2022-10-13T02:18:16.651Z,24.38
2022-10-13T02:18:46.677Z,24.39
2022-10-13T02:19:16.698Z,24.42
2022-10-13T02:19:46.723Z,24.40
2022-10-13T02:20:16.754Z,24.39
2022-10-13T02:20:46.772Z,24.38
2022-10-13T02:21:16.786Z,24.40
2022-10-13T02:21:46.807Z,24.40
2022-10-13T02:22:17.235Z,24.40
2022-10-13T02:22:46.900Z,24.42
2022-10-13T02:23:16.921Z,24.40
2022-10-13T02:23:46.933Z,24.42
2022-10-13T02:24:16.951Z,24.43
2022-10-13T02:24:46.972Z,24.39
2022-10-13T02:25:16.993Z,24.42
2022-10-13T02:25:47.017Z,24.43
2022-10-13T02:26:17.038Z,24.42
2022-10-13T02:26:47.055Z,24.44
2022-10-13T02:27:17.073Z,24.40
2022-10-13T02:27:47.091Z,24.42
2022-10-13T02:28:17.150Z,24.42
2022-10-13T02:28:47.195Z,24.42
2022-10-13T02:29:17.236Z,24.40
2022-10-13T02:29:47.250Z,24.39
2022-10-13T02:30:17.279Z,24.42
2022-10-13T02:30:47.299Z,24.39
2022-10-13T02:31:17.337Z,24.39
2022-10-13T02:31:47.336Z,24.36
2022-10-13T02:32:17.711Z,24.36
2022-10-13T02:32:47.367Z,24.35
2022-10-13T02:33:17.385Z,24.35
2022-10-13T02:33:47.406Z,24.33
2022-10-13T02:34:17.430Z,24.36
2022-10-13T02:34:47.445Z,24.33
2022-10-13T02:35:17.464Z,24.35
2022-10-13T02:35:47.485Z,24.33
2022-10-13T02:36:17.502Z,24.33
2022-10-13T02:36:47.531Z,24.30
2022-10-13T02:37:17.542Z,24.32
2022-10-13T02:37:47.562Z,24.30
2022-10-13T02:38:17.584Z,24.30
2022-10-13T02:38:47.601Z,24.27
2022-10-13T02:39:17.620Z,24.27
2022-10-13T02:39:47.634Z,24.32
2022-10-13T02:40:17.658Z,24.33
2022-10-13T02:40:47.673Z,24.32
2022-10-13T02:41:17.694Z,24.32
2022-10-13T02:41:47.715Z,24.32
2022-10-13T02:42:18.075Z,24.35
2022-10-13T02:42:47.734Z,24.38
2022-10-13T02:43:17.754Z,24.35
2022-10-13T02:43:47.776Z,24.35
2022-10-13T02:44:17.798Z,24.35
2022-10-13T02:44:47.816Z,24.36
2022-10-13T02:45:17.838Z,24.39
2022-10-13T02:45:47.854Z,24.36
2022-10-13T02:46:17.872Z,24.36
2022-10-13T02:46:47.914Z,24.38
2022-10-13T02:47:17.911Z,24.38
2022-10-13T02:47:47.925Z,24.39
2022-10-13T02:48:17.947Z,24.38
2022-10-13T02:48:47.961Z,24.35
2022-10-13T02:49:17.978Z,24.35
2022-10-13T02:49:47.997Z,24.36
2022-10-13T02:50:18.018Z,24.36
2022-10-13T02:50:48.045Z,24.33
2022-10-13T02:51:18.063Z,24.40
2022-10-13T02:51:48.080Z,24.40
2022-10-13T02:52:18.402Z,24.38
2022-10-13T02:52:48.196Z,24.36
2022-10-13T02:53:18.224Z,24.35
2022-10-13T02:53:48.221Z,24.36
2022-10-13T02:54:18.229Z,24.33
2022-10-13T02:54:48.348Z,24.36
2022-10-13T02:55:18.450Z,24.35
2022-10-13T02:55:48.560Z,24.35
2022-10-13T02:56:18.666Z,24.38
2022-10-13T02:56:48.768Z,24.38
2022-10-13T02:57:18.877Z,24.36
2022-10-13T02:57:48.986Z,24.39
2022-10-13T02:58:19.097Z,24.39
2022-10-13T02:58:49.218Z,24.40
2022-10-13T02:59:19.308Z,24.40
2022-10-13T02:59:49.417Z,24.40
2022-10-13T03:00:19.530Z,24.39
2022-10-13T03:00:49.664Z,24.40
2022-10-13T03:01:19.742Z,24.38
2022-10-13T03:01:49.850Z,24.38
2022-10-13T03:02:20.210Z,24.38
2022-10-13T03:02:50.031Z,24.40
2022-10-13T03:03:20.134Z,24.38
2022-10-13T03:03:50.248Z,24.35
2022-10-13T03:04:20.362Z,24.33
2022-10-13T03:04:50.385Z,24.30
2022-10-13T03:05:20.409Z,24.32
2022-10-13T03:05:50.425Z,24.32
2022-10-13T03:06:20.450Z,24.33
2022-10-13T03:06:50.466Z,24.30
2022-10-13T03:07:20.487Z,24.29
2022-10-13T03:07:50.503Z,24.29
2022-10-13T03:08:20.529Z,24.27
2022-10-13T03:08:50.551Z,24.27
2022-10-13T03:09:20.574Z,24.29
2022-10-13T03:09:50.595Z,24.26
2022-10-13T03:10:20.642Z,24.23
2022-10-13T03:10:50.662Z,24.23
2022-10-13T03:11:20.684Z,24.22
2022-10-13T03:11:50.704Z,24.23
2022-10-13T03:12:21.159Z,24.23
2022-10-13T03:12:50.769Z,24.20
2022-10-13T03:13:20.789Z,24.20
2022-10-13T03:13:50.809Z,24.20
2022-10-13T03:14:20.832Z,24.20
2022-10-13T03:14:50.863Z,24.22
2022-10-13T03:15:20.965Z,24.24
2022-10-13T03:15:50.981Z,24.26
2022-10-13T03:16:21.011Z,24.26
2022-10-13T03:16:51.018Z,24.27
2022-10-13T03:17:21.042Z,24.27
2022-10-13T03:17:51.084Z,24.26
2022-10-13T03:18:21.087Z,24.26
2022-10-13T03:18:51.105Z,24.26
2022-10-13T03:19:21.130Z,24.23
2022-10-13T03:19:51.165Z,24.29
2022-10-13T03:20:21.190Z,24.32
2022-10-13T03:20:51.208Z,24.30
2022-10-13T03:21:21.226Z,24.33
2022-10-13T03:21:51.245Z,24.35
2022-10-13T03:22:21.767Z,24.36
2022-10-13T03:22:51.281Z,24.39
2022-10-13T03:23:21.300Z,24.35
2022-10-13T03:23:51.315Z,24.36
2022-10-13T03:24:21.339Z,24.35
2022-10-13T03:24:51.364Z,24.36
2022-10-13T03:25:21.381Z,24.36
2022-10-13T03:25:51.400Z,24.39
2022-10-13T03:26:21.420Z,24.40
2022-10-13T03:26:51.438Z,24.38
2022-10-13T03:27:21.460Z,24.42
2022-10-13T03:27:51.486Z,24.40
2022-10-13T03:28:21.551Z,24.40
2022-10-13T03:28:51.630Z,24.44
2022-10-13T03:29:21.635Z,24.42
2022-10-13T03:29:51.663Z,24.42
2022-10-13T03:30:21.679Z,24.42
2022-10-13T03:30:51.701Z,24.44
2022-10-13T03:31:21.724Z,24.43
2022-10-13T03:31:51.746Z,24.44
2022-10-13T03:32:22.241Z,24.44
2022-10-13T03:32:51.781Z,24.46
2022-10-13T03:33:21.832Z,24.49
2022-10-13T03:33:51.826Z,24.46
2022-10-13T03:34:21.850Z,24.47
2022-10-13T03:34:51.876Z,24.47
2022-10-13T03:35:21.894Z,24.44
2022-10-13T03:35:51.915Z,24.40
2022-10-13T03:36:21.936Z,24.43
2022-10-13T03:36:51.959Z,24.42
2022-10-13T03:37:21.982Z,24.39
2022-10-13T03:37:51.998Z,24.40
2022-10-13T03:38:22.017Z,24.39
2022-10-13T03:38:52.035Z,24.38
2022-10-13T03:39:22.053Z,24.38
2022-10-13T03:39:52.078Z,24.39
2022-10-13T03:40:22.100Z,24.38
2022-10-13T03:40:52.118Z,24.35
2022-10-13T03:41:22.135Z,24.35
2022-10-13T03:41:52.159Z,24.35
2022-10-13T03:42:22.416Z,24.35
2022-10-13T03:42:52.202Z,24.33
2022-10-13T03:43:22.227Z,24.33
2022-10-13T03:43:52.253Z,24.33
2022-10-13T03:44:22.262Z,24.33
2022-10-13T03:44:56.101Z,24.33
2022-10-13T03:45:22.305Z,24.36
2022-10-13T03:45:52.315Z,24.36
2022-10-13T03:46:22.337Z,24.38
2022-10-13T03:46:52.354Z,24.36
2022-10-13T03:47:22.375Z,24.38
2022-10-13T03:47:52.392Z,24.36
2022-10-13T03:48:22.413Z,24.42
2022-10-13T03:48:52.476Z,24.36
2022-10-13T03:49:22.447Z,24.36
2022-10-13T03:49:52.469Z,24.36
2022-10-13T03:50:22.487Z,24.36
2022-10-13T03:50:52.505Z,24.36
2022-10-13T03:51:22.535Z,24.35
2022-10-13T03:51:52.546Z,24.35
2022-10-13T03:52:22.774Z,24.38
2022-10-13T03:52:52.636Z,24.36
2022-10-13T03:53:22.668Z,24.36
2022-10-13T03:53:52.688Z,24.38
2022-10-13T03:54:22.685Z,24.35
2022-10-13T03:54:52.799Z,24.30
2022-10-13T03:55:22.907Z,24.27
2022-10-13T03:55:53.022Z,24.29
2022-10-13T03:56:23.124Z,24.29
2022-10-13T03:56:53.237Z,24.23
2022-10-13T03:57:23.336Z,24.22
2022-10-13T03:57:53.446Z,24.19
2022-10-13T03:58:23.563Z,24.17
2022-10-13T03:58:53.674Z,24.16
2022-10-13T03:59:23.783Z,24.15
2022-10-13T03:59:53.897Z,24.12
2022-10-13T04:00:24.011Z,24.11
2022-10-13T04:00:54.129Z,24.13
2022-10-13T04:01:24.162Z,24.16
2022-10-13T04:01:54.231Z,24.15
2022-10-13T04:02:24.199Z,24.15
2022-10-13T04:02:54.309Z,24.16
2022-10-13T04:03:24.413Z,24.13
2022-10-13T04:03:54.547Z,24.15
2022-10-13T04:04:24.523Z,24.12
2022-10-13T04:04:54.551Z,24.12
2022-10-13T04:05:24.582Z,24.09
2022-10-13T04:05:54.604Z,24.11
2022-10-13T04:06:24.624Z,24.09
2022-10-13T04:06:54.641Z,24.06
2022-10-13T04:07:24.655Z,24.08
2022-10-13T04:07:54.677Z,24.08
2022-10-13T04:08:24.695Z,24.09
2022-10-13T04:08:54.712Z,24.08
2022-10-13T04:09:24.732Z,24.12
2022-10-13T04:09:54.749Z,24.13
2022-10-13T04:10:24.779Z,24.11
2022-10-13T04:10:54.799Z,24.12
2022-10-13T04:11:24.818Z,24.13
2022-10-13T04:11:54.845Z,24.12
2022-10-13T04:12:25.208Z,24.12
2022-10-13T04:12:54.963Z,24.15
2022-10-13T04:13:24.980Z,24.15
2022-10-13T04:13:54.997Z,24.15
2022-10-13T04:14:25.013Z,24.16
2022-10-13T04:14:55.032Z,24.12
2022-10-13T04:15:25.056Z,24.17
2022-10-13T04:15:55.079Z,24.17
2022-10-13T04:16:25.098Z,24.16
2022-10-13T04:16:55.126Z,24.19
2022-10-13T04:17:25.149Z,24.17
2022-10-13T04:17:55.172Z,24.19
2022-10-13T04:18:25.193Z,24.22
2022-10-13T04:18:55.214Z,24.19
2022-10-13T04:19:25.255Z,24.19
2022-10-13T04:19:55.276Z,24.20
2022-10-13T04:20:25.292Z,24.19
2022-10-13T04:20:55.313Z,24.17
2022-10-13T04:21:25.331Z,24.22
2022-10-13T04:21:55.344Z,24.19
2022-10-13T04:22:25.367Z,24.19
2022-10-13T04:22:55.397Z,24.20
2022-10-13T04:23:25.421Z,24.19
2022-10-13T04:23:55.430Z,24.20
2022-10-13T04:24:25.450Z,24.20
2022-10-13T04:24:55.468Z,24.19
2022-10-13T04:25:25.485Z,24.22
2022-10-13T04:25:55.505Z,24.22
2022-10-13T04:26:25.526Z,24.24
2022-10-13T04:26:55.546Z,24.19
2022-10-13T04:27:25.562Z,24.22
2022-10-13T04:27:55.579Z,24.19
2022-10-13T04:28:25.662Z,24.20
2022-10-13T04:28:55.689Z,24.22
2022-10-13T04:29:25.685Z,24.23
2022-10-13T04:29:55.720Z,24.22
2022-10-13T04:30:25.736Z,24.23
2022-10-13T04:30:55.759Z,24.26
2022-10-13T04:31:25.776Z,24.20
2022-10-13T04:31:55.800Z,24.22
2022-10-13T04:32:25.818Z,24.23
2022-10-13T04:32:55.842Z,24.22
2022-10-13T04:33:25.865Z,24.26
2022-10-13T04:33:55.883Z,24.30
2022-10-13T04:34:25.904Z,24.30
2022-10-13T04:34:55.951Z,24.32
2022-10-13T04:35:25.942Z,24.29
2022-10-13T04:35:55.960Z,24.32
2022-10-13T04:36:25.982Z,24.35
2022-10-13T04:36:55.997Z,24.30
2022-10-13T04:37:26.014Z,24.32
2022-10-13T04:37:56.032Z,24.30
2022-10-13T04:38:26.058Z,24.35
2022-10-13T04:38:56.114Z,24.32
2022-10-13T04:39:26.135Z,24.35
2022-10-13T04:39:56.158Z,24.35
2022-10-13T04:40:26.177Z,24.35
2022-10-13T04:40:56.191Z,24.39
2022-10-13T04:41:26.210Z,24.40
2022-10-13T04:41:56.223Z,24.40
2022-10-13T04:42:26.236Z,24.40
2022-10-13T04:42:56.253Z,24.36
2022-10-13T04:43:26.270Z,24.38
2022-10-13T04:43:56.293Z,24.35
2022-10-13T04:44:26.307Z,24.36
2022-10-13T04:44:56.325Z,24.38
2022-10-13T04:45:26.342Z,24.39
2022-10-13T04:45:56.360Z,24.40
2022-10-13T04:46:26.394Z,24.42
2022-10-13T04:46:56.408Z,24.40
2022-10-13T04:47:26.424Z,24.42
2022-10-13T04:47:56.440Z,24.43
2022-10-13T04:48:26.460Z,24.42
2022-10-13T04:48:56.476Z,24.43
2022-10-13T04:49:26.497Z,24.46
2022-10-13T04:49:56.542Z,24.46
2022-10-13T04:50:26.582Z,24.49
2022-10-13T04:50:56.579Z,24.50
2022-10-13T04:51:26.600Z,24.50
2022-10-13T04:51:56.618Z,24.50
2022-10-13T04:52:26.636Z,24.54
2022-10-13T04:52:56.660Z,24.50
2022-10-13T04:53:26.673Z,24.51
2022-10-13T04:53:56.692Z,24.51
2022-10-13T04:54:26.693Z,24.50
2022-10-13T04:54:56.807Z,24.51
2022-10-13T04:55:26.919Z,24.53
2022-10-13T04:55:57.033Z,24.53
2022-10-13T04:56:27.143Z,24.53
2022-10-13T04:56:57.258Z,24.56
2022-10-13T04:57:27.369Z,24.57
2022-10-13T04:57:57.476Z,24.54
2022-10-13T04:58:27.584Z,24.56
2022-10-13T04:58:57.692Z,24.57
2022-10-13T04:59:27.801Z,24.58
2022-10-13T04:59:57.918Z,24.54
2022-10-13T05:00:28.070Z,24.56
2022-10-13T05:00:58.218Z,24.57
2022-10-13T05:01:28.186Z,24.58
2022-10-13T05:01:58.293Z,24.58
2022-10-13T05:02:28.402Z,24.60
2022-10-13T05:02:58.514Z,24.58
2022-10-13T05:03:28.621Z,24.61
2022-10-13T05:03:58.728Z,24.63
2022-10-13T05:04:28.735Z,24.64
2022-10-13T05:04:58.762Z,24.60
2022-10-13T05:05:28.805Z,24.66
2022-10-13T05:05:58.805Z,24.63
2022-10-13T05:06:28.829Z,24.60
2022-10-13T05:07:17.003Z,24.64
2022-10-13T05:07:28.879Z,24.61
2022-10-13T05:07:58.897Z,24.61
2022-10-13T05:08:28.938Z,24.63
2022-10-13T05:08:58.989Z,24.60
2022-10-13T05:09:28.995Z,24.61
2022-10-13T05:09:59.014Z,24.61
2022-10-13T05:10:33.855Z,24.61
2022-10-13T05:10:59.075Z,24.61
2022-10-13T05:11:29.090Z,24.61
2022-10-13T05:11:59.118Z,24.58
2022-10-13T05:12:29.132Z,24.57
2022-10-13T05:12:59.153Z,24.56
2022-10-13T05:13:29.175Z,24.58
2022-10-13T05:13:59.198Z,24.58
2022-10-13T05:14:29.221Z,24.56
2022-10-13T05:14:59.248Z,24.60
2022-10-13T05:15:29.269Z,24.56
2022-10-13T05:15:59.290Z,24.57
2022-10-13T05:16:29.312Z,24.58
2022-10-13T05:16:59.335Z,24.54
2022-10-13T05:17:34.165Z,24.54
2022-10-13T05:17:59.393Z,24.53
2022-10-13T05:18:29.407Z,24.56
2022-10-13T05:18:59.428Z,24.56
2022-10-13T05:19:29.447Z,24.53
2022-10-13T05:19:59.467Z,24.51
2022-10-13T05:20:29.491Z,24.51
2022-10-13T05:20:59.535Z,24.51
2022-10-13T05:21:29.529Z,24.51
2022-10-13T05:21:59.551Z,24.54
2022-10-13T05:22:29.570Z,24.54
2022-10-13T05:22:59.589Z,24.53
2022-10-13T05:23:29.604Z,24.50
2022-10-13T05:23:59.622Z,24.50
2022-10-13T05:24:29.636Z,24.49
2022-10-13T05:24:59.653Z,24.47
2022-10-13T05:25:33.725Z,24.49
2022-10-13T05:25:59.708Z,24.47
2022-10-13T05:26:29.732Z,24.46
2022-10-13T05:26:59.754Z,24.44
2022-10-13T05:27:29.774Z,24.46
2022-10-13T05:27:59.799Z,24.43
2022-10-13T05:28:29.904Z,24.46
2022-10-13T05:28:59.912Z,24.43
2022-10-13T05:29:29.942Z,24.44
2022-10-13T05:29:59.963Z,24.43
2022-10-13T05:30:29.980Z,24.44
2022-10-13T05:31:00.004Z,24.47
2022-10-13T05:31:30.026Z,24.46
2022-10-13T05:32:00.044Z,24.46
2022-10-13T05:32:30.067Z,24.44
2022-10-13T05:33:00.086Z,24.46
2022-10-13T05:33:30.098Z,24.44
2022-10-13T05:34:00.123Z,24.46
2022-10-13T05:34:30.161Z,24.44
2022-10-13T05:35:00.185Z,24.43
2022-10-13T05:35:30.204Z,24.44
2022-10-13T05:36:00.302Z,24.46
2022-10-13T05:36:30.364Z,24.46
2022-10-13T05:37:00.376Z,24.43
2022-10-13T05:37:30.392Z,24.46
2022-10-13T05:38:00.414Z,24.46
2022-10-13T05:38:30.424Z,24.46
2022-10-13T05:39:00.444Z,24.47
2022-10-13T05:39:30.463Z,24.46
2022-10-13T05:40:00.477Z,24.47
2022-10-13T05:40:30.499Z,24.49
2022-10-13T05:41:00.521Z,24.49
2022-10-13T05:41:30.544Z,24.47
2022-10-13T05:42:00.575Z,24.49
2022-10-13T05:42:30.593Z,24.49
2022-10-13T05:43:00.609Z,24.47
2022-10-13T05:43:30.658Z,24.46
2022-10-13T05:44:00.674Z,24.47
2022-10-13T05:44:30.691Z,24.47
2022-10-13T05:45:00.710Z,24.50
2022-10-13T05:45:30.729Z,24.49
2022-10-13T05:46:00.750Z,24.51
2022-10-13T05:46:30.765Z,24.51
2022-10-13T05:47:06.489Z,24.49
2022-10-13T05:47:30.833Z,24.47
2022-10-13T05:48:00.859Z,24.47
2022-10-13T05:48:30.895Z,24.46
2022-10-13T05:49:00.929Z,24.47
2022-10-13T05:49:30.995Z,24.49
2022-10-13T05:50:01.036Z,24.49
2022-10-13T05:50:31.049Z,24.47
2022-10-13T05:51:01.064Z,24.49
2022-10-13T05:51:31.083Z,24.49
2022-10-13T05:52:01.161Z,24.47
2022-10-13T05:52:31.143Z,24.49
2022-10-13T05:53:01.168Z,24.47
2022-10-13T05:53:31.194Z,24.46
2022-10-13T05:54:01.208Z,24.49
2022-10-13T05:54:31.250Z,24.44
2022-10-13T05:55:01.259Z,24.46
2022-10-13T05:55:31.248Z,24.47
2022-10-13T05:56:01.368Z,24.49
2022-10-13T05:56:31.467Z,24.49
2022-10-13T05:57:01.578Z,24.46
2022-10-13T05:57:31.686Z,24.49
2022-10-13T05:58:01.796Z,24.50
2022-10-13T05:58:31.910Z,24.49
2022-10-13T05:59:02.011Z,24.50
2022-10-13T05:59:32.135Z,24.50
2022-10-13T06:00:02.118Z,24.49
2022-10-13T06:00:32.224Z,24.49
2022-10-13T06:01:02.335Z,24.49
2022-10-13T06:01:32.465Z,24.49
2022-10-13T06:02:02.626Z,24.47
2022-10-13T06:02:32.588Z,24.51
2022-10-13T06:03:02.701Z,24.50
2022-10-13T06:03:32.808Z,24.54
2022-10-13T06:04:02.912Z,24.54
2022-10-13T06:04:32.939Z,24.54
2022-10-13T06:05:02.961Z,24.51
2022-10-13T06:05:32.984Z,24.53
2022-10-13T06:06:03.001Z,24.53
2022-10-13T06:06:33.031Z,24.54
2022-10-13T06:07:03.071Z,24.54
2022-10-13T06:07:33.066Z,24.54
2022-10-13T06:08:03.086Z,24.56
2022-10-13T06:08:33.114Z,24.56
2022-10-13T06:09:03.134Z,24.54
2022-10-13T06:09:33.256Z,24.51
2022-10-13T06:10:03.161Z,24.53
2022-10-13T06:10:33.177Z,24.54
2022-10-13T06:11:03.198Z,24.53
2022-10-13T06:11:33.220Z,24.53
2022-10-13T06:12:03.240Z,24.56
2022-10-13T06:12:33.258Z,24.54
2022-10-13T06:13:03.277Z,24.56
2022-10-13T06:13:33.300Z,24.54
2022-10-13T06:14:03.325Z,24.54
2022-10-13T06:14:33.359Z,24.51
2022-10-13T06:15:03.373Z,24.57
2022-10-13T06:15:33.393Z,24.54
2022-10-13T06:16:03.413Z,24.56
2022-10-13T06:16:33.433Z,24.57
2022-10-13T06:17:03.452Z,24.56
2022-10-13T06:17:33.472Z,24.57
2022-10-13T06:18:03.492Z,24.54
2022-10-13T06:18:33.511Z,24.54
2022-10-13T06:19:03.531Z,24.51
2022-10-13T06:19:33.593Z,24.50
2022-10-13T06:20:03.655Z,24.54
2022-10-13T06:20:33.681Z,24.50
2022-10-13T06:21:03.699Z,24.51
2022-10-13T06:21:33.725Z,24.51
2022-10-13T06:22:04.023Z,24.54
2022-10-13T06:22:33.850Z,24.53
2022-10-13T06:23:03.848Z,24.53
2022-10-13T06:23:33.864Z,24.53
2022-10-13T06:24:03.883Z,24.50
2022-10-13T06:24:33.904Z,24.53
2022-10-13T06:25:03.928Z,24.54
2022-10-13T06:25:33.950Z,24.54
2022-10-13T06:26:03.972Z,24.57
2022-10-13T06:26:33.992Z,24.56
2022-10-13T06:27:04.011Z,24.56